createdAt,value
2017-09-14T00:00:41.846Z,960.47
2017-09-14T00:01:41.840Z,960.41
2017-09-14T00:02:41.837Z,960.4
2017-09-14T00:03:41.833Z,960.39
2017-09-14T00:04:41.827Z,960.41
2017-09-14T00:05:41.823Z,960.36
2017-09-14T00:06:41.819Z,960.36
2017-09-14T00:07:41.814Z,960.39
2017-09-14T00:08:41.810Z,960.3
2017-09-14T00:09:41.806Z,960.32
2017-09-14T00:10:41.803Z,960.31
2017-09-14T00:11:41.798Z,960.3
2017-09-14T00:12:41.794Z,960.27
2017-09-14T00:13:41.788Z,960.29
2017-09-14T00:14:41.784Z,960.26
2017-09-14T00:15:41.780Z,960.25
2017-09-14T00:16:41.776Z,960.25
2017-09-14T00:17:41.773Z,960.16
2017-09-14T00:18:41.770Z,960.15
2017-09-14T00:19:41.763Z,960.14
2017-09-14T00:20:41.759Z,960.12
2017-09-14T00:21:41.756Z,960.14
2017-09-14T00:22:41.750Z,960.15
2017-09-14T00:23:41.746Z,960.1
2017-09-14T00:24:41.741Z,960.12
2017-09-14T00:25:41.737Z,960.1
2017-09-14T00:26:41.733Z,960.04
2017-09-14T00:27:41.732Z,960.01
2017-09-14T00:28:41.725Z,960.01
2017-09-14T00:29:41.721Z,959.98
2017-09-14T00:30:41.718Z,959.99
2017-09-14T00:31:41.713Z,960.01
2017-09-14T00:32:41.869Z,959.92
2017-09-14T00:33:41.704Z,959.92
2017-09-14T00:34:41.701Z,959.94
2017-09-14T00:35:41.697Z,959.92
2017-09-14T00:36:41.694Z,959.85
2017-09-14T00:37:41.687Z,959.83
2017-09-14T00:38:41.683Z,959.84
2017-09-14T00:39:41.679Z,959.77
2017-09-14T00:40:41.675Z,959.72
2017-09-14T00:41:41.670Z,959.73
2017-09-14T00:42:41.667Z,959.72
2017-09-14T00:43:41.663Z,959.65
2017-09-14T00:44:41.658Z,959.61
2017-09-14T00:45:41.653Z,959.62
2017-09-14T00:46:41.649Z,959.65
2017-09-14T00:47:41.646Z,959.59
2017-09-14T00:48:41.640Z,959.57
2017-09-14T00:49:41.635Z,959.57
2017-09-14T00:50:41.632Z,959.57
2017-09-14T00:51:41.627Z,959.58
2017-09-14T00:52:41.622Z,959.53
2017-09-14T00:53:41.620Z,959.48
2017-09-14T00:54:41.615Z,959.48
2017-09-14T00:55:41.610Z,959.46
2017-09-14T00:56:41.606Z,959.45
2017-09-14T00:57:41.753Z,959.46
2017-09-14T00:58:41.598Z,959.41
2017-09-14T00:59:41.693Z,959.39
2017-09-14T01:00:41.590Z,959.39
2017-09-14T01:01:41.585Z,959.33
2017-09-14T01:02:41.579Z,959.29
2017-09-14T01:03:41.576Z,959.24
2017-09-14T01:04:41.572Z,959.27
2017-09-14T01:05:41.568Z,959.23
2017-09-14T01:06:41.564Z,959.2
2017-09-14T01:07:41.559Z,959.17
2017-09-14T01:08:41.554Z,959.19
2017-09-14T01:09:41.572Z,959.18
2017-09-14T01:10:41.645Z,959.13
2017-09-14T01:11:41.543Z,959.17
2017-09-14T01:12:41.537Z,959.16
2017-09-14T01:13:41.535Z,959.2
2017-09-14T01:14:41.528Z,959.16
2017-09-14T01:15:41.624Z,959.13
2017-09-14T01:16:41.520Z,959.09
2017-09-14T01:17:41.516Z,959.13
2017-09-14T01:18:41.512Z,959.09
2017-09-14T01:19:41.508Z,959.09
2017-09-14T01:20:41.506Z,959.03
2017-09-14T01:21:41.498Z,959.02
2017-09-14T01:22:41.495Z,958.98
2017-09-14T01:23:41.490Z,958.96
2017-09-14T01:24:41.485Z,958.91
2017-09-14T01:25:41.481Z,958.95
2017-09-14T01:26:41.477Z,958.96
2017-09-14T01:27:41.475Z,958.96
2017-09-14T01:28:41.469Z,958.98
2017-09-14T01:29:41.464Z,958.93
2017-09-14T01:30:41.461Z,958.92
2017-09-14T01:31:41.457Z,958.92
2017-09-14T01:32:41.452Z,959
2017-09-14T01:33:41.448Z,958.96
2017-09-14T01:34:41.445Z,958.9
2017-09-14T01:35:41.439Z,958.87
2017-09-14T01:36:41.435Z,958.92
2017-09-14T01:37:41.430Z,958.91
2017-09-14T01:38:41.427Z,958.82
2017-09-14T01:39:41.421Z,958.9
2017-09-14T01:40:41.417Z,958.91
2017-09-14T01:41:41.413Z,958.88
2017-09-14T01:42:41.411Z,958.85
2017-09-14T01:43:41.404Z,958.88
2017-09-14T01:44:41.401Z,958.85
2017-09-14T01:45:41.397Z,958.87
2017-09-14T01:46:41.391Z,958.85
2017-09-14T01:47:41.388Z,958.93
2017-09-14T01:48:41.383Z,958.93
2017-09-14T01:49:41.386Z,958.9
2017-09-14T01:50:41.375Z,958.89
2017-09-14T01:51:41.371Z,958.88
2017-09-14T01:52:41.367Z,958.9
2017-09-14T01:53:41.362Z,958.9
2017-09-14T01:54:41.358Z,958.97
2017-09-14T01:55:41.354Z,958.84
2017-09-14T01:56:41.349Z,958.86
2017-09-14T01:57:41.345Z,958.9
2017-09-14T01:58:41.339Z,958.85
2017-09-14T01:59:41.336Z,958.84
2017-09-14T02:00:41.331Z,958.89
2017-09-14T02:01:41.330Z,958.86
2017-09-14T02:02:41.323Z,958.81
2017-09-14T02:03:41.319Z,958.79
2017-09-14T02:04:41.315Z,958.83
2017-09-14T02:05:41.311Z,958.79
2017-09-14T02:06:41.307Z,958.79
2017-09-14T02:07:41.303Z,958.71
2017-09-14T02:08:41.297Z,958.73
2017-09-14T02:09:41.293Z,958.7
2017-09-14T02:10:41.289Z,958.71
2017-09-14T02:11:41.284Z,958.69
2017-09-14T02:12:41.279Z,958.7
2017-09-14T02:13:41.276Z,958.7
2017-09-14T02:14:41.272Z,958.72
2017-09-14T02:15:41.266Z,958.66
2017-09-14T02:16:41.263Z,958.65
2017-09-14T02:17:41.258Z,958.65
2017-09-14T02:18:41.255Z,958.67
2017-09-14T02:19:41.351Z,958.65
2017-09-14T02:20:41.246Z,958.63
2017-09-14T02:21:41.241Z,958.62
2017-09-14T02:22:41.237Z,958.56
2017-09-14T02:23:41.230Z,958.62
2017-09-14T02:24:41.227Z,958.58
2017-09-14T02:25:41.224Z,958.56
2017-09-14T02:26:41.218Z,958.58
2017-09-14T02:27:41.215Z,958.55
2017-09-14T02:28:41.209Z,958.54
2017-09-14T02:29:41.204Z,958.52
2017-09-14T02:30:41.199Z,958.51
2017-09-14T02:31:41.197Z,958.54
2017-09-14T02:32:41.193Z,958.51
2017-09-14T02:33:41.188Z,958.56
2017-09-14T02:34:41.182Z,958.54
2017-09-14T02:35:41.179Z,958.55
2017-09-14T02:36:41.174Z,958.54
2017-09-14T02:37:41.172Z,958.5
2017-09-14T02:38:41.164Z,958.58
2017-09-14T02:39:41.160Z,958.56
2017-09-14T02:40:41.157Z,958.58
2017-09-14T02:41:41.152Z,958.54
2017-09-14T02:42:41.247Z,958.6
2017-09-14T02:43:41.147Z,958.6
2017-09-14T02:44:41.138Z,958.53
2017-09-14T02:45:41.134Z,958.57
2017-09-14T02:46:41.129Z,958.54
2017-09-14T02:47:41.125Z,958.57
2017-09-14T02:48:41.121Z,958.52
2017-09-14T02:49:41.115Z,958.52
2017-09-14T02:50:41.112Z,958.55
2017-09-14T02:51:41.109Z,958.5
2017-09-14T02:52:41.253Z,958.49
2017-09-14T02:53:41.099Z,958.41
2017-09-14T02:54:41.093Z,958.41
2017-09-14T02:55:41.090Z,958.42
2017-09-14T02:56:41.084Z,958.47
2017-09-14T02:57:41.081Z,958.52
2017-09-14T02:58:41.078Z,958.47
2017-09-14T02:59:41.071Z,958.44
2017-09-14T03:00:41.067Z,958.47
2017-09-14T03:01:41.064Z,958.46
2017-09-14T03:02:41.059Z,958.47
2017-09-14T03:03:41.052Z,958.48
2017-09-14T03:04:41.049Z,958.44
2017-09-14T03:05:41.045Z,958.4
2017-09-14T03:06:41.042Z,958.42
2017-09-14T03:07:41.036Z,958.41
2017-09-14T03:08:41.033Z,958.48
2017-09-14T03:09:41.027Z,958.46
2017-09-14T03:10:41.023Z,958.47
2017-09-14T03:11:41.018Z,958.37
2017-09-14T03:12:41.013Z,958.37
2017-09-14T03:13:41.011Z,958.37
2017-09-14T03:14:41.005Z,958.41
2017-09-14T03:15:41.003Z,958.43
2017-09-14T03:16:40.996Z,958.41
2017-09-14T03:17:40.993Z,958.39
2017-09-14T03:18:40.986Z,958.44
2017-09-14T03:19:40.983Z,958.47
2017-09-14T03:20:40.978Z,958.42
2017-09-14T03:21:40.974Z,958.47
2017-09-14T03:22:40.969Z,958.48
2017-09-14T03:23:40.969Z,958.42
2017-09-14T03:24:40.962Z,958.46
2017-09-14T03:25:40.956Z,958.44
2017-09-14T03:26:40.952Z,958.43
2017-09-14T03:27:40.947Z,958.43
2017-09-14T03:28:40.944Z,958.39
2017-09-14T03:29:40.938Z,958.39
2017-09-14T03:30:40.934Z,958.43
2017-09-14T03:31:40.929Z,958.44
2017-09-14T03:32:40.924Z,958.4
2017-09-14T03:33:40.920Z,958.39
2017-09-14T03:34:41.017Z,958.47
2017-09-14T03:35:40.913Z,958.43
2017-09-14T03:36:40.907Z,958.39
2017-09-14T03:37:40.904Z,958.37
2017-09-14T03:38:40.899Z,958.34
2017-09-14T03:39:40.895Z,958.35
2017-09-14T03:40:40.891Z,958.33
2017-09-14T03:41:40.887Z,958.31
2017-09-14T03:42:40.883Z,958.28
2017-09-14T03:43:40.882Z,958.35
2017-09-14T03:44:40.874Z,958.34
2017-09-14T03:45:40.869Z,958.28
2017-09-14T03:46:40.864Z,958.28
2017-09-14T03:47:40.859Z,958.34
2017-09-14T03:48:40.856Z,958.34
2017-09-14T03:49:40.852Z,958.26
2017-09-14T03:50:40.848Z,958.24
2017-09-14T03:51:40.843Z,958.31
2017-09-14T03:52:40.838Z,958.29
2017-09-14T03:53:40.934Z,958.33
2017-09-14T03:54:40.829Z,958.29
2017-09-14T03:55:40.824Z,958.3
2017-09-14T03:56:40.822Z,958.29
2017-09-14T03:57:40.819Z,958.23
2017-09-14T03:58:40.816Z,958.22
2017-09-14T03:59:40.809Z,958.17
2017-09-14T04:00:40.803Z,958.2
2017-09-14T04:01:40.798Z,958.18
2017-09-14T04:02:40.795Z,958.15
2017-09-14T04:03:40.791Z,958.2
2017-09-14T04:04:40.788Z,958.08
2017-09-14T04:05:40.782Z,958.03
2017-09-14T04:06:40.778Z,958.04
2017-09-14T04:07:40.924Z,958.03
2017-09-14T04:08:40.769Z,958.03
2017-09-14T04:09:40.764Z,958.05
2017-09-14T04:10:40.760Z,958.05
2017-09-14T04:11:40.756Z,958.02
2017-09-14T04:12:40.751Z,958.03
2017-09-14T04:13:40.746Z,958
2017-09-14T04:14:40.744Z,958
2017-09-14T04:15:40.740Z,957.96
2017-09-14T04:16:40.735Z,957.98
2017-09-14T04:17:40.730Z,957.96
2017-09-14T04:18:40.727Z,957.96
2017-09-14T04:19:40.728Z,957.94
2017-09-14T04:20:40.817Z,957.93
2017-09-14T04:21:40.721Z,957.94
2017-09-14T04:22:40.708Z,957.96
2017-09-14T04:23:40.736Z,957.95
2017-09-14T04:24:40.700Z,957.97
2017-09-14T04:25:40.695Z,957.93
2017-09-14T04:26:40.692Z,957.98
2017-09-14T04:27:40.687Z,957.95
2017-09-14T04:28:40.693Z,957.96
2017-09-14T04:29:40.679Z,957.93
2017-09-14T04:30:40.674Z,957.91
2017-09-14T04:31:40.669Z,957.92
2017-09-14T04:32:40.666Z,957.93
2017-09-14T04:33:40.663Z,957.91
2017-09-14T04:34:40.680Z,957.9
2017-09-14T04:35:40.653Z,957.88
2017-09-14T04:36:40.649Z,957.9
2017-09-14T04:37:40.645Z,957.85
2017-09-14T04:38:40.639Z,957.83
2017-09-14T04:39:40.636Z,957.79
2017-09-14T04:40:40.632Z,957.82
2017-09-14T04:41:40.628Z,957.8
2017-09-14T04:42:40.623Z,957.81
2017-09-14T04:43:40.639Z,957.81
2017-09-14T04:44:40.616Z,957.74
2017-09-14T04:45:40.609Z,957.72
2017-09-14T04:46:40.607Z,957.7
2017-09-14T04:47:40.602Z,957.75
2017-09-14T04:48:40.601Z,957.72
2017-09-14T04:49:40.593Z,957.76
2017-09-14T04:50:40.588Z,957.74
2017-09-14T04:51:40.584Z,957.71
2017-09-14T04:52:40.682Z,957.72
2017-09-14T04:53:40.582Z,957.74
2017-09-14T04:54:40.571Z,957.7
2017-09-14T04:55:40.567Z,957.74
2017-09-14T04:56:40.562Z,957.72
2017-09-14T04:57:40.559Z,957.66
2017-09-14T04:58:40.554Z,957.64
2017-09-14T04:59:40.552Z,957.58
2017-09-14T05:00:40.546Z,957.54
2017-09-14T05:01:40.543Z,957.59
2017-09-14T05:02:40.539Z,957.61
2017-09-14T05:03:40.535Z,957.61
2017-09-14T05:04:40.529Z,957.59
2017-09-14T05:05:40.526Z,957.61
2017-09-14T05:06:40.521Z,957.62
2017-09-14T05:07:40.516Z,957.59
2017-09-14T05:08:40.513Z,957.57
2017-09-14T05:09:40.508Z,957.6
2017-09-14T05:10:40.507Z,957.58
2017-09-14T05:11:40.500Z,957.55
2017-09-14T05:12:40.497Z,957.54
2017-09-14T05:13:40.492Z,957.54
2017-09-14T05:14:40.488Z,957.57
2017-09-14T05:15:40.486Z,957.53
2017-09-14T05:16:40.481Z,957.53
2017-09-14T05:17:40.478Z,957.52
2017-09-14T05:18:40.472Z,957.53
2017-09-14T05:19:40.467Z,957.53
2017-09-14T05:20:40.465Z,957.56
2017-09-14T05:21:40.460Z,957.51
2017-09-14T05:22:40.455Z,957.48
2017-09-14T05:23:40.452Z,957.46
2017-09-14T05:24:40.446Z,957.47
2017-09-14T05:25:40.441Z,957.39
2017-09-14T05:26:40.438Z,957.43
2017-09-14T05:27:40.435Z,957.42
2017-09-14T05:28:40.430Z,957.45
2017-09-14T05:29:40.426Z,957.39
2017-09-14T05:30:40.422Z,957.39
2017-09-14T05:31:40.418Z,957.33
2017-09-14T05:32:40.415Z,957.31
2017-09-14T05:33:40.409Z,957.31
2017-09-14T05:34:40.406Z,957.31
2017-09-14T05:35:40.402Z,957.35
2017-09-14T05:36:40.395Z,957.31
2017-09-14T05:37:40.392Z,957.34
2017-09-14T05:38:40.389Z,957.42
2017-09-14T05:39:40.385Z,957.37
2017-09-14T05:40:40.379Z,957.31
2017-09-14T05:41:40.376Z,957.35
2017-09-14T05:42:40.372Z,957.33
2017-09-14T05:43:40.368Z,957.32
2017-09-14T05:44:40.364Z,957.29
2017-09-14T05:45:40.359Z,957.29
2017-09-14T05:46:40.355Z,957.26
2017-09-14T05:47:40.351Z,957.33
2017-09-14T05:48:40.347Z,957.28
2017-09-14T05:49:40.347Z,957.27
2017-09-14T05:50:40.339Z,957.31
2017-09-14T05:51:40.335Z,957.31
2017-09-14T05:52:40.332Z,957.24
2017-09-14T05:53:40.326Z,957.19
2017-09-14T05:54:40.322Z,957.18
2017-09-14T05:55:40.318Z,957.23
2017-09-14T05:56:40.315Z,957.19
2017-09-14T05:57:40.310Z,957.16
2017-09-14T05:58:40.306Z,957.19
2017-09-14T05:59:40.303Z,957.09
2017-09-14T06:00:40.300Z,957.12
2017-09-14T06:01:40.296Z,957.09
2017-09-14T06:02:40.293Z,957.08
2017-09-14T06:03:40.289Z,957.07
2017-09-14T06:04:40.284Z,957.03
2017-09-14T06:05:40.279Z,957.05
2017-09-14T06:06:40.276Z,957.01
2017-09-14T06:07:40.273Z,956.99
2017-09-14T06:08:40.268Z,956.99
2017-09-14T06:09:40.264Z,957.03
2017-09-14T06:10:40.259Z,957.01
2017-09-14T06:11:40.359Z,957.07
2017-09-14T06:12:40.251Z,957.03
2017-09-14T06:13:40.248Z,957.01
2017-09-14T06:14:40.244Z,957
2017-09-14T06:15:40.340Z,956.95
2017-09-14T06:16:40.237Z,956.94
2017-09-14T06:17:40.231Z,956.87
2017-09-14T06:18:40.327Z,956.86
2017-09-14T06:19:40.223Z,956.9
2017-09-14T06:20:40.219Z,956.86
2017-09-14T06:21:40.215Z,956.86
2017-09-14T06:22:40.212Z,956.9
2017-09-14T06:23:40.208Z,956.87
2017-09-14T06:24:40.203Z,956.83
2017-09-14T06:25:40.198Z,956.83
2017-09-14T06:26:40.196Z,956.79
2017-09-14T06:27:40.192Z,956.72
2017-09-14T06:28:40.187Z,956.72
2017-09-14T06:29:40.183Z,956.79
2017-09-14T06:30:40.179Z,956.75
2017-09-14T06:31:40.176Z,956.71
2017-09-14T06:32:40.171Z,956.72
2017-09-14T06:33:40.167Z,956.71
2017-09-14T06:34:40.163Z,956.71
2017-09-14T06:35:40.157Z,956.73
2017-09-14T06:36:40.154Z,956.73
2017-09-14T06:37:40.150Z,956.73
2017-09-14T06:38:40.146Z,956.72
2017-09-14T06:39:40.141Z,956.72
2017-09-14T06:40:40.140Z,956.72
2017-09-14T06:41:40.133Z,956.68
2017-09-14T06:42:40.128Z,956.69
2017-09-14T06:43:40.126Z,956.71
2017-09-14T06:44:40.122Z,956.68
2017-09-14T06:45:40.119Z,956.68
2017-09-14T06:46:40.112Z,956.69
2017-09-14T06:47:40.110Z,956.65
2017-09-14T06:48:40.104Z,956.65
2017-09-14T06:49:40.100Z,956.68
2017-09-14T06:50:40.097Z,956.67
2017-09-14T06:51:40.093Z,956.63
2017-09-14T06:52:40.091Z,956.68
2017-09-14T06:53:40.084Z,956.69
2017-09-14T06:54:40.083Z,956.67
2017-09-14T06:55:40.078Z,956.72
2017-09-14T06:56:40.074Z,956.71
2017-09-14T06:57:40.069Z,956.71
2017-09-14T06:58:40.065Z,956.71
2017-09-14T06:59:40.060Z,956.71
2017-09-14T07:00:40.056Z,956.66
2017-09-14T07:01:40.053Z,956.72
2017-09-14T07:02:40.047Z,956.68
2017-09-14T07:03:40.045Z,956.73
2017-09-14T07:04:40.040Z,956.72
2017-09-14T07:05:40.036Z,956.73
2017-09-14T07:06:40.032Z,956.76
2017-09-14T07:07:40.028Z,956.7
2017-09-14T07:08:40.024Z,956.66
2017-09-14T07:09:40.020Z,956.69
2017-09-14T07:10:40.017Z,956.71
2017-09-14T07:11:40.010Z,956.7
2017-09-14T07:12:40.006Z,956.71
2017-09-14T07:13:40.031Z,956.74
2017-09-14T07:14:39.999Z,956.74
2017-09-14T07:15:39.994Z,956.7
2017-09-14T07:16:39.990Z,956.73
2017-09-14T07:17:39.989Z,956.7
2017-09-14T07:18:39.983Z,956.73
2017-09-14T07:19:39.977Z,956.72
2017-09-14T07:20:39.974Z,956.72
2017-09-14T07:21:40.071Z,956.74
2017-09-14T07:22:39.965Z,956.75
2017-09-14T07:23:39.962Z,956.74
2017-09-14T07:24:39.959Z,956.71
2017-09-14T07:25:39.953Z,956.76
2017-09-14T07:26:40.048Z,956.78
2017-09-14T07:27:39.945Z,956.76
2017-09-14T07:28:39.941Z,956.76
2017-09-14T07:29:39.938Z,956.78
2017-09-14T07:30:39.959Z,956.77
2017-09-14T07:31:39.929Z,956.79
2017-09-14T07:32:39.932Z,956.83
2017-09-14T07:33:39.921Z,956.78
2017-09-14T07:34:39.918Z,956.76
2017-09-14T07:35:39.914Z,956.77
2017-09-14T07:36:39.910Z,956.79
2017-09-14T07:37:39.903Z,956.93
2017-09-14T07:38:39.902Z,956.92
2017-09-14T07:39:39.897Z,956.92
2017-09-14T07:40:39.893Z,956.92
2017-09-14T07:41:39.887Z,956.85
2017-09-14T07:42:39.884Z,956.86
2017-09-14T07:43:39.882Z,956.94
2017-09-14T07:44:39.874Z,956.89
2017-09-14T07:45:39.872Z,956.87
2017-09-14T07:46:39.869Z,956.88
2017-09-14T07:47:39.863Z,956.97
2017-09-14T07:48:39.859Z,956.9
2017-09-14T07:49:39.856Z,956.86
2017-09-14T07:50:39.851Z,956.83
2017-09-14T07:51:39.847Z,956.89
2017-09-14T07:52:39.843Z,956.97
2017-09-14T07:53:39.840Z,956.87
2017-09-14T07:54:39.835Z,956.92
2017-09-14T07:55:39.831Z,956.87
2017-09-14T07:56:39.826Z,956.9
2017-09-14T07:57:39.822Z,956.94
2017-09-14T07:58:39.842Z,956.9
2017-09-14T07:59:39.815Z,956.92
2017-09-14T08:00:39.810Z,956.92
2017-09-14T08:01:39.806Z,956.9
2017-09-14T08:02:39.802Z,956.89
2017-09-14T08:03:39.898Z,956.88
2017-09-14T08:04:39.795Z,956.88
2017-09-14T08:05:39.789Z,956.87
2017-09-14T08:06:39.784Z,956.93
2017-09-14T08:07:39.783Z,956.89
2017-09-14T08:08:39.778Z,956.92
2017-09-14T08:09:39.775Z,957.01
2017-09-14T08:10:39.770Z,957.06
2017-09-14T08:11:39.770Z,956.94
2017-09-14T08:12:40.113Z,956.97
2017-09-14T08:13:39.758Z,957
2017-09-14T08:14:39.751Z,957.1
2017-09-14T08:15:39.749Z,957.1
2017-09-14T08:16:39.752Z,957.14
2017-09-14T08:17:39.740Z,957.38
2017-09-14T08:18:39.736Z,957.57
2017-09-14T08:19:39.732Z,957.59
2017-09-14T08:20:39.729Z,957.66
2017-09-14T08:21:39.725Z,957.8
2017-09-14T08:22:39.724Z,957.8
2017-09-14T08:23:39.715Z,957.79
2017-09-14T08:24:39.711Z,957.95
2017-09-14T08:25:39.707Z,957.93
2017-09-14T08:26:39.704Z,957.76
2017-09-14T08:27:39.699Z,957.85
2017-09-14T08:28:39.694Z,958.01
2017-09-14T08:29:39.690Z,958.08
2017-09-14T08:30:39.685Z,958.08
2017-09-14T08:31:39.681Z,958.13
2017-09-14T08:32:39.677Z,958.23
2017-09-14T08:33:39.673Z,958.18
2017-09-14T08:34:39.669Z,958.19
2017-09-14T08:35:39.676Z,958.3
2017-09-14T08:36:39.662Z,958.41
2017-09-14T08:37:39.655Z,958.53
2017-09-14T08:38:39.652Z,958.56
2017-09-14T08:39:39.645Z,958.4
2017-09-14T08:40:39.642Z,958.44
2017-09-14T08:41:39.637Z,958.47
2017-09-14T08:42:39.633Z,958.73
2017-09-14T08:43:39.629Z,958.87
2017-09-14T08:44:39.623Z,958.97
2017-09-14T08:45:39.620Z,958.91
2017-09-14T08:46:39.614Z,958.87
2017-09-14T08:47:39.620Z,958.77
2017-09-14T08:48:39.605Z,958.89
2017-09-14T08:49:39.617Z,959.09
2017-09-14T08:50:39.610Z,959.39
2017-09-14T08:51:39.591Z,959.59
2017-09-14T08:52:39.587Z,959.83
2017-09-14T08:53:39.584Z,959.87
2017-09-14T08:54:39.578Z,959.88
2017-09-14T08:55:39.575Z,959.94
2017-09-14T08:56:39.570Z,959.94
2017-09-14T08:57:39.665Z,959.97
2017-09-14T08:58:39.561Z,960.02
2017-09-14T08:59:39.556Z,960.12
2017-09-14T09:00:39.554Z,960.22
2017-09-14T09:01:39.545Z,960.3
2017-09-14T09:02:39.543Z,960.35
2017-09-14T09:03:39.538Z,960.38
2017-09-14T09:04:39.534Z,960.37
2017-09-14T09:05:39.534Z,960.39
2017-09-14T09:06:39.525Z,960.39
2017-09-14T09:07:39.522Z,960.38
2017-09-14T09:08:39.514Z,960.46
2017-09-14T09:09:39.511Z,960.61
2017-09-14T09:10:39.608Z,960.76
2017-09-14T09:11:39.502Z,960.82
2017-09-14T09:12:39.496Z,960.87
2017-09-14T09:13:39.492Z,960.89
2017-09-14T09:14:39.487Z,960.85
2017-09-14T09:15:39.484Z,960.93
2017-09-14T09:16:39.477Z,961.01
2017-09-14T09:17:39.476Z,961.09
2017-09-14T09:18:39.469Z,961.19
2017-09-14T09:19:39.470Z,961.38
2017-09-14T09:20:39.460Z,961.55
2017-09-14T09:21:39.456Z,961.66
2017-09-14T09:22:39.452Z,961.72
2017-09-14T09:23:39.445Z,961.84
2017-09-14T09:24:39.441Z,961.84
2017-09-14T09:25:39.436Z,961.91
2017-09-14T09:26:39.433Z,961.91
2017-09-14T09:27:39.426Z,961.9
2017-09-14T09:28:39.523Z,961.87
2017-09-14T09:29:39.418Z,961.81
2017-09-14T09:30:39.413Z,961.8
2017-09-14T09:31:39.409Z,961.8
2017-09-14T09:32:39.404Z,961.82
2017-09-14T09:33:39.399Z,961.87
2017-09-14T09:34:39.393Z,961.94
2017-09-14T09:35:39.389Z,961.95
2017-09-14T09:36:39.387Z,961.9
2017-09-14T09:37:39.381Z,961.86
2017-09-14T09:38:39.376Z,961.88
2017-09-14T09:39:39.372Z,961.95
2017-09-14T09:40:39.368Z,962.08
2017-09-14T09:41:39.362Z,962.11
2017-09-14T09:42:39.358Z,962.13
2017-09-14T09:43:39.353Z,962.18
2017-09-14T09:44:39.349Z,962.19
2017-09-14T09:45:39.343Z,962.23
2017-09-14T09:46:39.340Z,962.36
2017-09-14T09:47:39.335Z,962.48
2017-09-14T09:48:39.331Z,962.55
2017-09-14T09:49:39.326Z,962.69
2017-09-14T09:50:39.322Z,962.88
2017-09-14T09:51:39.318Z,963.02
2017-09-14T09:52:39.313Z,962.97
2017-09-14T09:53:39.309Z,962.96
2017-09-14T09:54:39.305Z,963.01
2017-09-14T09:55:39.299Z,963.08
2017-09-14T09:56:39.294Z,963.12
2017-09-14T09:57:39.290Z,963.23
2017-09-14T09:58:39.286Z,963.27
2017-09-14T09:59:39.282Z,963.31
2017-09-14T10:00:39.277Z,963.29
2017-09-14T10:01:39.279Z,963.26
2017-09-14T10:02:39.269Z,963.23
2017-09-14T10:03:39.263Z,963.25
2017-09-14T10:04:39.260Z,963.29
2017-09-14T10:05:39.255Z,963.26
2017-09-14T10:06:39.252Z,963.39
2017-09-14T10:07:39.245Z,963.47
2017-09-14T10:08:39.242Z,963.59
2017-09-14T10:09:39.237Z,963.67
2017-09-14T10:10:39.233Z,963.76
2017-09-14T10:11:39.229Z,963.84
2017-09-14T10:12:39.224Z,963.9
2017-09-14T10:13:39.220Z,963.88
2017-09-14T10:14:39.215Z,963.9
2017-09-14T10:15:39.212Z,963.97
2017-09-14T10:16:39.207Z,964.09
2017-09-14T10:17:39.202Z,964.08
2017-09-14T10:18:39.197Z,963.95
2017-09-14T10:19:39.193Z,963.97
2017-09-14T10:20:39.188Z,964.08
2017-09-14T10:21:39.183Z,964.14
2017-09-14T10:22:39.179Z,964.15
2017-09-14T10:23:39.175Z,964.05
2017-09-14T10:24:39.172Z,963.99
2017-09-14T10:25:39.167Z,963.99
2017-09-14T10:26:39.164Z,964.01
2017-09-14T10:27:39.157Z,964.04
2017-09-14T10:28:39.155Z,964.04
2017-09-14T10:29:39.149Z,964.05
2017-09-14T10:30:39.145Z,964.12
2017-09-14T10:31:39.140Z,964.15
2017-09-14T10:32:39.135Z,964.16
2017-09-14T10:33:39.131Z,964.24
2017-09-14T10:34:39.126Z,964.27
2017-09-14T10:35:39.121Z,964.31
2017-09-14T10:36:39.119Z,964.23
2017-09-14T10:37:39.213Z,964.21
2017-09-14T10:38:39.109Z,964.22
2017-09-14T10:39:39.102Z,964.26
2017-09-14T10:40:39.098Z,964.26
2017-09-14T10:41:39.094Z,964.27
2017-09-14T10:42:39.090Z,964.28
2017-09-14T10:43:39.084Z,964.24
2017-09-14T10:44:39.080Z,964.2
2017-09-14T10:45:39.076Z,964.22
2017-09-14T10:46:39.071Z,964.22
2017-09-14T10:47:39.066Z,964.3
2017-09-14T10:48:39.063Z,964.29
2017-09-14T10:49:39.058Z,964.22
2017-09-14T10:50:39.053Z,964.34
2017-09-14T10:51:39.047Z,964.34
2017-09-14T10:52:39.042Z,964.28
2017-09-14T10:53:39.041Z,964.36
2017-09-14T10:54:39.032Z,964.34
2017-09-14T10:55:39.028Z,964.41
2017-09-14T10:56:39.022Z,964.43
2017-09-14T10:57:39.020Z,964.5
2017-09-14T10:58:39.013Z,964.44
2017-09-14T10:59:39.007Z,964.47
2017-09-14T11:00:39.002Z,964.52
2017-09-14T11:01:38.997Z,964.59
2017-09-14T11:02:38.992Z,964.57
2017-09-14T11:03:38.987Z,964.53
2017-09-14T11:04:38.982Z,964.6
2017-09-14T11:05:38.976Z,964.54
2017-09-14T11:06:38.971Z,964.58
2017-09-14T11:07:38.967Z,964.56
2017-09-14T11:08:38.963Z,964.55
2017-09-14T11:09:38.956Z,964.59
2017-09-14T11:10:38.951Z,964.58
2017-09-14T11:11:38.949Z,964.56
2017-09-14T11:12:38.942Z,964.58
2017-09-14T11:13:38.935Z,964.55
2017-09-14T11:14:38.931Z,964.62
2017-09-14T11:15:38.927Z,964.55
2017-09-14T11:16:38.920Z,964.54
2017-09-14T11:17:38.915Z,964.59
2017-09-14T11:18:38.910Z,964.65
2017-09-14T11:19:38.907Z,964.61
2017-09-14T11:20:38.901Z,964.68
2017-09-14T11:21:38.895Z,964.76
2017-09-14T11:22:38.890Z,964.76
2017-09-14T11:23:38.885Z,964.84
2017-09-14T11:24:38.879Z,964.85
2017-09-14T11:25:38.874Z,964.88
2017-09-14T11:26:38.870Z,964.9
2017-09-14T11:27:38.864Z,964.89
2017-09-14T11:28:38.859Z,964.88
2017-09-14T11:29:38.855Z,964.91
2017-09-14T11:30:38.849Z,964.86
2017-09-14T11:31:38.844Z,964.78
2017-09-14T11:32:38.839Z,964.85
2017-09-14T11:33:38.834Z,964.85
2017-09-14T11:34:38.830Z,964.87
2017-09-14T11:35:38.823Z,964.8
2017-09-14T11:36:38.819Z,964.8
2017-09-14T11:37:38.814Z,964.92
2017-09-14T11:38:38.807Z,964.86
2017-09-14T11:39:38.803Z,964.84
2017-09-14T11:40:38.898Z,964.78
2017-09-14T11:41:38.792Z,964.75
2017-09-14T11:42:38.787Z,964.78
2017-09-14T11:43:38.783Z,964.79
2017-09-14T11:44:38.777Z,964.83
2017-09-14T11:45:38.771Z,964.9
2017-09-14T11:46:38.765Z,964.96
2017-09-14T11:47:38.761Z,965.01
2017-09-14T11:48:38.855Z,964.92
2017-09-14T11:49:38.749Z,964.99
2017-09-14T11:50:38.744Z,964.94
2017-09-14T11:51:38.739Z,964.85
2017-09-14T11:52:38.734Z,964.84
2017-09-14T11:53:38.728Z,964.9
2017-09-14T11:54:38.723Z,964.86
2017-09-14T11:55:38.716Z,964.91
2017-09-14T11:56:38.712Z,964.87
2017-09-14T11:57:38.706Z,964.91
2017-09-14T11:58:38.703Z,964.89
2017-09-14T11:59:38.697Z,964.91
2017-09-14T12:00:38.692Z,964.83
2017-09-14T12:01:38.686Z,964.84
2017-09-14T12:02:38.681Z,964.85
2017-09-14T12:03:38.677Z,964.84
2017-09-14T12:04:38.670Z,964.82
2017-09-14T12:05:38.667Z,964.79
2017-09-14T12:06:38.661Z,964.85
2017-09-14T12:07:38.654Z,964.82
2017-09-14T12:08:38.649Z,964.85
2017-09-14T12:09:38.644Z,964.89
2017-09-14T12:10:38.640Z,964.97
2017-09-14T12:11:38.634Z,964.99
2017-09-14T12:12:38.629Z,964.97
2017-09-14T12:13:38.624Z,964.99
2017-09-14T12:14:38.619Z,964.91
2017-09-14T12:15:38.613Z,964.97
2017-09-14T12:16:38.708Z,964.97
2017-09-14T12:17:38.603Z,964.99
2017-09-14T12:18:38.597Z,964.96
2017-09-14T12:19:38.593Z,965.01
2017-09-14T12:20:38.586Z,964.93
2017-09-14T12:21:38.582Z,964.97
2017-09-14T12:22:38.576Z,964.94
2017-09-14T12:23:38.572Z,964.94
2017-09-14T12:24:38.567Z,964.94
2017-09-14T12:25:38.562Z,964.92
2017-09-14T12:26:38.556Z,964.96
2017-09-14T12:27:38.551Z,965.04
2017-09-14T12:28:38.546Z,965.04
2017-09-14T12:29:38.542Z,965.14
2017-09-14T12:30:38.535Z,965.09